createdAt,value
2024-01-04T00:00:47.145Z,7.70
2024-01-04T00:03:15.484Z,7.63
2024-01-04T00:05:45.217Z,7.80
2024-01-04T00:08:13.473Z,7.70
2024-01-04T00:10:41.658Z,7.88
2024-01-04T00:13:09.894Z,7.55
2024-01-04T00:15:38.076Z,7.60
2024-01-04T00:18:06.779Z,7.70
2024-01-04T00:20:35.219Z,7.20
2024-01-04T00:23:05.284Z,7.47
2024-01-04T00:25:33.545Z,7.15
2024-01-04T00:28:02.057Z,7.30
2024-01-04T00:30:30.309Z,7.30
2024-01-04T00:32:59.033Z,6.88
2024-01-04T00:35:27.567Z,7.15
2024-01-04T00:37:57.704Z,7.18
2024-01-04T00:40:27.372Z,6.90
2024-01-04T00:42:55.547Z,7.00
2024-01-04T00:45:23.977Z,6.97
2024-01-04T00:47:52.195Z,6.82
2024-01-04T00:50:20.456Z,7.07
2024-01-04T00:52:56.443Z,6.78
2024-01-04T00:55:30.264Z,6.70
2024-01-04T00:57:58.954Z,6.63
2024-01-04T01:00:27.200Z,6.60
2024-01-04T01:02:55.418Z,6.03
2024-01-04T01:05:23.681Z,6.53
2024-01-04T01:07:51.860Z,6.15
2024-01-04T01:10:20.112Z,6.57
2024-01-04T01:12:49.972Z,6.15
2024-01-04T01:15:18.302Z,6.15
2024-01-04T01:17:46.689Z,6.22
2024-01-04T01:20:15.142Z,6.50
2024-01-04T01:22:43.319Z,6.43
2024-01-04T01:25:11.553Z,6.03
2024-01-04T01:27:39.782Z,6.55
2024-01-04T01:30:10.674Z,5.95
2024-01-04T01:32:39.011Z,6.40
2024-01-04T01:35:10.061Z,5.55
2024-01-04T01:37:38.621Z,5.88
2024-01-04T01:40:08.894Z,6.13
2024-01-04T01:42:37.119Z,5.90
2024-01-04T01:45:05.915Z,6.18
2024-01-04T01:47:35.718Z,6.00
2024-01-04T01:50:04.000Z,5.97
2024-01-04T01:52:32.264Z,5.68
2024-01-04T01:55:00.451Z,5.60
2024-01-04T01:57:28.780Z,6.10
2024-01-04T01:59:56.981Z,5.88
2024-01-04T02:02:25.352Z,5.53
2024-01-04T02:04:55.324Z,5.47
2024-01-04T02:07:24.590Z,5.43
2024-01-04T02:09:52.773Z,5.82
2024-01-04T02:12:20.972Z,5.43
2024-01-04T02:14:52.922Z,5.63
2024-01-04T02:17:21.181Z,5.47
2024-01-04T02:19:49.600Z,5.13
2024-01-04T02:22:19.503Z,5.40
2024-01-04T02:24:49.083Z,5.25
2024-01-04T02:27:18.792Z,5.13
2024-01-04T02:29:47.039Z,5.00
2024-01-04T02:32:15.347Z,5.22
2024-01-04T02:34:43.505Z,4.97
2024-01-04T02:37:12.930Z,5.35
2024-01-04T02:39:41.130Z,4.80
2024-01-04T02:42:10.822Z,5.07
2024-01-04T02:44:39.095Z,5.15
2024-01-04T02:47:07.358Z,5.05
2024-01-04T02:49:36.014Z,4.70
2024-01-04T02:52:04.229Z,5.13
2024-01-04T02:54:32.483Z,4.63
2024-01-04T02:57:01.699Z,4.95
2024-01-04T02:59:31.354Z,4.50
2024-01-04T03:01:59.581Z,4.68
2024-01-04T03:04:27.936Z,4.68
2024-01-04T03:06:56.141Z,4.50
2024-01-04T03:09:24.471Z,4.43
2024-01-04T03:11:52.783Z,4.85
2024-01-04T03:14:21.008Z,4.50
2024-01-04T03:16:50.576Z,4.40
2024-01-04T03:19:19.028Z,4.55
2024-01-04T03:21:47.339Z,4.60
2024-01-04T03:24:16.001Z,4.30
2024-01-04T03:26:44.230Z,4.70
2024-01-04T03:29:12.569Z,4.25
2024-01-04T03:31:40.746Z,4.60
2024-01-04T03:34:10.484Z,4.20
2024-01-04T03:36:38.794Z,4.80
2024-01-04T03:39:07.760Z,4.18
2024-01-04T03:41:35.999Z,3.83
2024-01-04T03:44:04.310Z,4.40
2024-01-04T03:46:32.491Z,4.65
2024-01-04T03:49:00.927Z,3.78
2024-01-04T03:51:30.590Z,4.40
2024-01-04T03:53:59.932Z,4.15
2024-01-04T03:56:28.203Z,4.57
2024-01-04T03:58:56.358Z,3.97
2024-01-04T04:01:24.560Z,3.95
2024-01-04T04:03:52.848Z,3.88
2024-01-04T04:06:21.451Z,4.38
2024-01-04T04:08:51.142Z,3.67
2024-01-04T04:11:19.550Z,4.00
2024-01-04T04:13:47.766Z,3.65
2024-01-04T04:16:15.976Z,4.07
2024-01-04T04:18:44.245Z,3.85
2024-01-04T04:21:20.350Z,3.90
2024-01-04T04:23:51.621Z,3.92
2024-01-04T04:26:20.177Z,3.22
2024-01-04T04:28:48.393Z,3.50
2024-01-04T04:31:16.768Z,4.10
2024-01-04T04:33:46.099Z,3.78
2024-01-04T04:36:14.531Z,3.95
2024-01-04T04:38:43.382Z,3.97
2024-01-04T04:41:13.029Z,3.50
2024-01-04T04:43:41.287Z,3.95
2024-01-04T04:46:11.216Z,3.38
2024-01-04T04:48:39.914Z,3.10
2024-01-04T04:51:08.415Z,3.67
2024-01-04T04:53:36.772Z,3.50
2024-01-04T04:56:05.337Z,3.97
2024-01-04T04:58:34.955Z,3.20
2024-01-04T05:01:03.212Z,3.40
2024-01-04T05:03:31.458Z,3.70
2024-01-04T05:05:59.855Z,3.60
2024-01-04T05:08:28.045Z,3.35
2024-01-04T05:10:56.269Z,3.30
2024-01-04T05:13:24.440Z,3.17
2024-01-04T05:15:54.014Z,3.22
2024-01-04T05:18:22.657Z,3.25
2024-01-04T05:20:50.964Z,3.22
2024-01-04T05:23:19.529Z,3.20
2024-01-04T05:25:47.820Z,3.03
2024-01-04T05:28:16.030Z,2.88
2024-01-04T05:30:44.327Z,3.10
2024-01-04T05:33:14.225Z,6.32
2024-01-04T05:35:42.553Z,5.57
2024-01-04T05:38:10.762Z,5.78
2024-01-04T05:40:38.940Z,6.00
2024-01-04T05:43:07.312Z,5.93
2024-01-04T05:45:35.531Z,6.82
2024-01-04T05:48:03.784Z,5.80
2024-01-04T05:50:33.570Z,5.72
2024-01-04T05:53:01.726Z,6.18
2024-01-04T05:55:29.945Z,5.70
2024-01-04T05:57:58.145Z,6.05
2024-01-04T06:00:26.428Z,6.10
2024-01-04T06:02:54.729Z,7.22
2024-01-04T06:05:23.066Z,6.05
2024-01-04T06:07:52.681Z,6.22
2024-01-04T06:10:21.635Z,6.47
2024-01-04T06:12:49.837Z,7.05
2024-01-04T06:15:18.398Z,10.98
2024-01-04T06:17:47.144Z,12.20
2024-01-04T06:20:15.554Z,13.30
2024-01-04T06:22:44.459Z,12.02
2024-01-04T06:25:14.127Z,12.35
2024-01-04T06:27:42.494Z,14.07
2024-01-04T06:30:11.664Z,13.90
2024-01-04T06:32:40.141Z,13.82
2024-01-04T06:35:09.036Z,13.73
2024-01-04T06:37:37.324Z,11.90
2024-01-04T06:40:08.872Z,13.57
2024-01-04T06:42:38.482Z,13.18
2024-01-04T06:45:07.250Z,13.63
2024-01-04T06:47:36.028Z,13.57
2024-01-04T06:50:14.441Z,13.95
2024-01-04T06:52:46.897Z,13.57
2024-01-04T06:55:15.218Z,12.57
2024-01-04T06:57:44.839Z,13.77
2024-01-04T07:00:14.015Z,13.63
2024-01-04T07:02:42.393Z,13.50
2024-01-04T07:05:12.621Z,14.73
2024-01-04T07:07:41.105Z,13.13
2024-01-04T07:10:10.950Z,13.95
2024-01-04T07:12:40.983Z,14.27
2024-01-04T07:15:11.470Z,14.25
2024-01-04T07:17:39.981Z,13.77
2024-01-04T07:20:10.473Z,14.48
2024-01-04T07:22:38.820Z,13.82
2024-01-04T07:25:08.017Z,14.18
2024-01-04T07:27:36.240Z,14.45
2024-01-04T07:30:04.993Z,15.40
2024-01-04T07:32:35.048Z,13.73
2024-01-04T07:35:12.657Z,13.40
2024-01-04T07:37:45.885Z,13.75
2024-01-04T07:40:14.394Z,13.63
2024-01-04T07:42:42.600Z,13.88
2024-01-04T07:45:11.401Z,14.68
2024-01-04T07:47:42.035Z,14.25
2024-01-04T07:50:10.877Z,13.63
2024-01-04T07:52:40.135Z,13.38
2024-01-04T07:55:08.852Z,13.85
2024-01-04T07:57:37.032Z,14.88
2024-01-04T08:00:06.325Z,14.15
2024-01-04T08:02:44.690Z,14.50
2024-01-04T08:05:15.017Z,14.35
2024-01-04T08:07:44.802Z,14.02
2024-01-04T08:10:13.132Z,13.55
2024-01-04T08:12:43.490Z,14.13
2024-01-04T08:15:13.041Z,13.32
2024-01-04T08:17:41.640Z,13.98
2024-01-04T08:20:15.284Z,13.43
2024-01-04T08:22:43.850Z,13.25
2024-01-04T08:25:12.077Z,14.52
2024-01-04T08:27:40.321Z,12.38
2024-01-04T08:30:09.909Z,13.02
2024-01-04T08:32:38.244Z,13.73
2024-01-04T08:35:07.213Z,13.10
2024-01-04T08:37:36.813Z,13.38
2024-01-04T08:40:05.870Z,13.18
2024-01-04T08:42:34.185Z,13.27
2024-01-04T08:45:02.528Z,12.73
2024-01-04T08:47:30.824Z,12.93
2024-01-04T08:50:02.056Z,12.98
2024-01-04T08:52:30.472Z,12.52
2024-01-04T08:55:00.309Z,13.18
2024-01-04T08:57:28.622Z,12.82
2024-01-04T08:59:56.882Z,12.85
2024-01-04T09:02:25.137Z,13.35
2024-01-04T09:04:53.425Z,12.43
2024-01-04T09:07:22.770Z,12.32
2024-01-04T09:09:51.944Z,12.20
2024-01-04T09:12:21.710Z,12.23
2024-01-04T09:14:50.063Z,11.77
2024-01-04T09:17:18.765Z,12.10
2024-01-04T09:19:47.696Z,12.30
2024-01-04T09:22:15.922Z,13.15
2024-01-04T09:24:44.191Z,12.10
2024-01-04T09:27:14.154Z,11.80
2024-01-04T09:29:45.527Z,11.63
2024-01-04T09:32:13.820Z,11.65
2024-01-04T09:34:42.123Z,11.45
2024-01-04T09:37:10.944Z,11.98
2024-01-04T09:39:41.151Z,11.23
2024-01-04T09:42:10.588Z,12.30
2024-01-04T09:44:40.079Z,11.65
2024-01-04T09:47:10.704Z,11.35
2024-01-04T09:49:39.762Z,11.35
2024-01-04T09:52:10.098Z,11.55
2024-01-04T09:54:40.088Z,11.50
2024-01-04T09:57:08.803Z,11.18
2024-01-04T09:59:37.309Z,11.35
2024-01-04T10:02:05.737Z,10.27
2024-01-04T10:04:35.669Z,10.85
2024-01-04T10:07:03.920Z,10.27
2024-01-04T10:09:36.598Z,10.48
2024-01-04T10:12:07.216Z,9.88
2024-01-04T10:14:35.504Z,10.52
2024-01-04T10:17:03.853Z,9.63
2024-01-04T10:19:32.794Z,10.05
2024-01-04T10:22:05.827Z,9.88
2024-01-04T10:24:38.589Z,9.73
2024-01-04T10:27:09.417Z,9.32
2024-01-04T10:29:39.116Z,9.73
2024-01-04T10:32:09.620Z,10.00
2024-01-04T10:34:38.437Z,8.85
2024-01-04T10:37:12.570Z,9.15
2024-01-04T10:39:41.081Z,8.88
2024-01-04T10:42:10.843Z,8.98
2024-01-04T10:44:39.800Z,8.77
2024-01-04T10:47:10.284Z,8.75
2024-01-04T10:49:39.208Z,9.10
2024-01-04T10:52:10.393Z,8.65
2024-01-04T10:54:39.977Z,8.88
2024-01-04T10:57:08.262Z,8.57
2024-01-04T10:59:36.444Z,9.02
2024-01-04T11:02:05.009Z,8.07
2024-01-04T11:04:33.208Z,8.35
2024-01-04T11:07:01.446Z,8.90
2024-01-04T11:09:29.975Z,8.25
2024-01-04T11:12:00.553Z,8.13
2024-01-04T11:14:31.312Z,8.00
2024-01-04T11:17:10.593Z,8.18
2024-01-04T11:19:47.896Z,7.43
2024-01-04T11:22:25.103Z,7.90
2024-01-04T11:24:58.177Z,8.07
2024-01-04T11:27:28.055Z,7.55
2024-01-04T11:29:56.430Z,7.80
2024-01-04T11:32:25.239Z,7.55
2024-01-04T11:34:53.493Z,7.70
2024-01-04T11:37:22.303Z,7.00
2024-01-04T11:40:00.316Z,6.93
2024-01-04T11:42:39.330Z,7.20
2024-01-04T11:45:15.168Z,7.28
2024-01-04T11:47:44.143Z,6.88
2024-01-04T11:50:20.848Z,6.75
2024-01-04T11:52:49.844Z,7.13
2024-01-04T11:55:25.202Z,6.90
2024-01-04T11:58:04.281Z,7.13
2024-01-04T12:00:34.259Z,6.50
2024-01-04T12:03:03.053Z,6.90
2024-01-04T12:05:31.316Z,6.15
2024-01-04T12:07:59.568Z,6.40
2024-01-04T12:10:27.800Z,6.28
2024-01-04T12:12:57.743Z,6.20
2024-01-04T12:15:26.219Z,5.97
2024-01-04T12:17:54.652Z,6.25
2024-01-04T12:20:22.976Z,5.85
2024-01-04T12:22:51.495Z,6.32
2024-01-04T12:25:22.286Z,5.93
2024-01-04T12:27:51.079Z,5.50
2024-01-04T12:30:20.784Z,5.55
2024-01-04T12:32:49.142Z,5.95
2024-01-04T12:35:20.190Z,5.60
2024-01-04T12:37:49.501Z,5.55
2024-01-04T12:40:17.716Z,5.50
2024-01-04T12:42:45.906Z,5.22
2024-01-04T12:45:14.141Z,5.45
2024-01-04T12:47:43.831Z,5.40
2024-01-04T12:50:13.272Z,5.05
2024-01-04T12:52:42.038Z,5.50
2024-01-04T12:55:11.105Z,5.15
2024-01-04T12:57:39.299Z,4.72
2024-01-04T13:00:08.934Z,5.30
2024-01-04T13:02:37.165Z,4.85
2024-01-04T13:05:09.979Z,5.05
2024-01-04T13:07:38.235Z,5.07
2024-01-04T13:10:10.093Z,5.18
2024-01-04T13:12:38.293Z,5.22
2024-01-04T13:15:08.269Z,5.10
2024-01-04T13:17:37.107Z,4.78
2024-01-04T13:20:09.080Z,4.65
2024-01-04T13:22:37.324Z,4.47
2024-01-04T13:25:06.149Z,4.50
2024-01-04T13:27:34.352Z,4.47
2024-01-04T13:30:02.713Z,4.30
2024-01-04T13:32:30.997Z,4.43
2024-01-04T13:35:01.234Z,4.57
2024-01-04T13:37:30.837Z,4.38
2024-01-04T13:39:59.013Z,4.60
2024-01-04T13:42:27.228Z,4.30
2024-01-04T13:44:55.535Z,4.28
2024-01-04T13:47:23.716Z,4.25
2024-01-04T13:49:51.988Z,4.20
2024-01-04T13:52:21.627Z,4.18
2024-01-04T13:54:52.667Z,4.10
2024-01-04T13:57:20.927Z,4.35
2024-01-04T13:59:49.163Z,3.80
2024-01-04T14:02:18.290Z,3.90
2024-01-04T14:04:46.538Z,4.07
2024-01-04T14:07:14.804Z,4.00
2024-01-04T14:09:44.013Z,3.90
2024-01-04T14:12:13.721Z,3.85
2024-01-04T14:14:42.137Z,4.10
2024-01-04T14:17:10.702Z,3.78
2024-01-04T14:19:39.372Z,3.88
2024-01-04T14:22:07.664Z,4.07
2024-01-04T14:24:35.886Z,3.90
2024-01-04T14:27:04.145Z,3.70
2024-01-04T14:29:35.385Z,3.63
2024-01-04T14:32:04.616Z,3.42
2024-01-04T14:34:33.479Z,3.50
2024-01-04T14:37:01.723Z,3.97
2024-01-04T14:39:29.953Z,3.70
2024-01-04T14:41:58.157Z,3.72
2024-01-04T14:44:26.661Z,3.67
2024-01-04T14:46:57.416Z,3.40
2024-01-04T14:49:27.872Z,3.42
2024-01-04T14:51:59.108Z,3.67
2024-01-04T14:54:27.497Z,3.30
2024-01-04T14:56:55.739Z,3.40
2024-01-04T14:59:23.983Z,3.38
2024-01-04T15:01:52.171Z,3.38
2024-01-04T15:04:21.781Z,3.30
2024-01-04T15:06:50.011Z,3.30
2024-01-04T15:09:18.386Z,3.00
2024-01-04T15:11:46.596Z,3.33
2024-01-04T15:14:15.374Z,3.28
2024-01-04T15:16:46.692Z,3.00
2024-01-04T15:19:15.036Z,3.10
2024-01-04T15:21:44.707Z,3.15
2024-01-04T15:24:12.934Z,3.22
2024-01-04T15:26:41.240Z,3.10
2024-01-04T15:29:09.980Z,3.13
2024-01-04T15:31:38.255Z,2.70
2024-01-04T15:34:06.616Z,3.47
2024-01-04T15:36:35.004Z,2.95
2024-01-04T15:39:05.286Z,2.97
2024-01-04T15:41:33.544Z,3.10
2024-01-04T15:44:02.321Z,2.95
2024-01-04T15:46:30.624Z,3.47
2024-01-04T15:48:58.926Z,3.10
2024-01-04T15:51:27.620Z,2.90
2024-01-04T15:53:59.382Z,2.90
2024-01-04T15:56:32.642Z,3.00
2024-01-04T15:59:01.255Z,3.05
2024-01-04T16:01:29.597Z,2.88
2024-01-04T16:03:58.642Z,2.85
2024-01-04T16:06:27.662Z,2.70
2024-01-04T16:08:57.071Z,2.65
2024-01-04T16:11:25.253Z,2.67
2024-01-04T16:13:54.861Z,2.70
2024-01-04T16:16:23.219Z,2.83
2024-01-04T16:18:51.710Z,2.42
2024-01-04T16:21:20.097Z,2.90
2024-01-04T16:23:49.166Z,2.70
2024-01-04T16:26:18.340Z,2.80
2024-01-04T16:28:46.686Z,2.60
2024-01-04T16:31:16.361Z,2.60
2024-01-04T16:33:44.840Z,2.58
2024-01-04T16:36:13.229Z,2.50
2024-01-04T16:38:41.505Z,2.47
2024-01-04T16:41:12.205Z,2.58
2024-01-04T16:43:40.838Z,2.40
2024-01-04T16:46:09.374Z,2.20
2024-01-04T16:48:39.224Z,2.40
2024-01-04T16:51:07.578Z,2.42
2024-01-04T16:53:36.534Z,2.53
2024-01-04T16:56:04.913Z,2.50
2024-01-04T16:58:33.168Z,2.60
2024-01-04T17:01:01.420Z,2.50
2024-01-04T17:03:29.818Z,2.45
2024-01-04T17:05:59.621Z,2.70
2024-01-04T17:08:27.891Z,2.53
2024-01-04T17:10:56.071Z,2.47
2024-01-04T17:13:24.293Z,2.80
2024-01-04T17:15:52.464Z,2.40
2024-01-04T17:18:21.203Z,2.58
2024-01-04T17:20:50.113Z,2.33
2024-01-04T17:23:19.744Z,2.70
2024-01-04T17:25:48.986Z,2.35
2024-01-04T17:28:17.352Z,2.50
2024-01-04T17:30:50.211Z,2.67
2024-01-04T17:33:19.388Z,2.50
2024-01-04T17:35:56.160Z,2.92
2024-01-04T17:38:36.996Z,2.78
2024-01-04T17:41:06.057Z,2.67
2024-01-04T17:43:34.674Z,2.60
2024-01-04T17:46:03.664Z,2.70
2024-01-04T17:48:34.952Z,3.00
2024-01-04T17:51:05.189Z,2.45
2024-01-04T17:53:35.525Z,2.83
2024-01-04T17:56:04.034Z,2.78
2024-01-04T17:58:32.869Z,2.70
2024-01-04T18:01:01.392Z,3.20
2024-01-04T18:03:29.682Z,2.90
2024-01-04T18:05:58.137Z,3.10
2024-01-04T18:08:26.717Z,2.88
2024-01-04T18:10:56.699Z,2.97
2024-01-04T18:13:25.493Z,2.78
2024-01-04T18:15:53.975Z,3.10
2024-01-04T18:18:22.821Z,3.08
2024-01-04T18:20:51.479Z,3.30
2024-01-04T18:23:20.260Z,3.08
2024-01-04T18:25:48.687Z,2.85
2024-01-04T18:28:22.067Z,3.72
2024-01-04T18:30:50.641Z,5.72
2024-01-04T18:33:19.053Z,7.43
2024-01-04T18:35:49.527Z,6.43
2024-01-04T18:38:18.124Z,8.10
2024-01-04T18:40:46.345Z,8.30
2024-01-04T18:43:14.691Z,9.43
2024-01-04T18:45:44.693Z,9.20
2024-01-04T18:48:13.955Z,10.13
2024-01-04T18:50:42.839Z,9.65
2024-01-04T18:53:11.036Z,8.98
2024-01-04T18:55:39.805Z,9.75
2024-01-04T18:58:08.392Z,9.88
2024-01-04T19:00:36.998Z,9.95
2024-01-04T19:03:07.242Z,10.98
2024-01-04T19:05:36.074Z,11.98
2024-01-04T19:08:04.928Z,10.70
2024-01-04T19:10:33.388Z,13.30
2024-01-04T19:13:01.728Z,15.40
2024-01-04T19:15:34.539Z,16.35
2024-01-04T19:18:09.973Z,17.13
2024-01-04T19:20:38.502Z,16.10
2024-01-04T19:23:07.262Z,14.43
2024-01-04T19:25:35.784Z,14.48
2024-01-04T19:28:04.093Z,14.60
2024-01-04T19:30:32.753Z,15.43
2024-01-04T19:33:01.540Z,14.60
2024-01-04T19:35:31.649Z,15.68
2024-01-04T19:38:00.656Z,16.67
2024-01-04T19:40:29.380Z,15.38
2024-01-04T19:42:57.612Z,15.70
2024-01-04T19:45:26.190Z,16.70
2024-01-04T19:47:57.836Z,17.10
2024-01-04T19:50:29.566Z,17.55
2024-01-04T19:53:00.032Z,15.10
2024-01-04T19:55:28.880Z,13.25
2024-01-04T19:57:57.454Z,12.90
2024-01-04T20:00:25.864Z,13.10
2024-01-04T20:02:54.778Z,14.40
2024-01-04T20:05:23.812Z,13.85
2024-01-04T20:07:52.201Z,15.15
2024-01-04T20:10:22.237Z,14.50
2024-01-04T20:12:51.000Z,14.88
2024-01-04T20:15:19.291Z,15.10
2024-01-04T20:17:48.097Z,15.55
2024-01-04T20:20:16.508Z,15.23
2024-01-04T20:22:45.316Z,15.18
2024-01-04T20:25:13.959Z,14.98
2024-01-04T20:27:44.663Z,15.52
2024-01-04T20:30:13.842Z,15.90
2024-01-04T20:32:45.131Z,16.27
2024-01-04T20:35:14.058Z,16.27
2024-01-04T20:37:42.490Z,23.80
2024-01-04T20:40:11.228Z,21.27
2024-01-04T20:42:39.610Z,20.83
2024-01-04T20:45:11.174Z,21.70
2024-01-04T20:47:39.845Z,21.80
2024-01-04T20:50:08.356Z,20.17
2024-01-04T20:52:37.181Z,20.10
2024-01-04T20:55:07.254Z,21.35
2024-01-04T20:57:36.091Z,22.15
2024-01-04T21:00:05.639Z,22.17
2024-01-04T21:02:35.782Z,22.23
2024-01-04T21:05:08.396Z,22.02
2024-01-04T21:07:37.154Z,22.60
2024-01-04T21:10:06.107Z,25.52
2024-01-04T21:12:34.972Z,30.85
2024-01-04T21:15:03.638Z,26.48
2024-01-04T21:17:32.280Z,26.95
2024-01-04T21:20:02.224Z,26.48
2024-01-04T21:22:30.794Z,25.20
2024-01-04T21:24:59.164Z,26.23
2024-01-04T21:27:27.621Z,27.42
2024-01-04T21:29:56.544Z,27.20
2024-01-04T21:32:26.748Z,27.02
2024-01-04T21:34:55.285Z,26.50
2024-01-04T21:37:25.455Z,28.00
2024-01-04T21:39:54.075Z,27.60
2024-01-04T21:42:23.120Z,26.73
2024-01-04T21:44:51.759Z,27.83
2024-01-04T21:47:20.059Z,28.23
2024-01-04T21:49:48.472Z,27.40
2024-01-04T21:52:17.331Z,26.50
2024-01-04T21:54:48.427Z,27.83
2024-01-04T21:57:17.337Z,29.58
2024-01-04T21:59:45.755Z,27.65
2024-01-04T22:02:14.659Z,27.35
2024-01-04T22:04:43.783Z,28.48
2024-01-04T22:07:12.538Z,27.88
2024-01-04T22:09:42.420Z,27.98
2024-01-04T22:12:12.383Z,29.35
2024-01-04T22:14:41.670Z,26.88
2024-01-04T22:17:10.034Z,28.88
2024-01-04T22:19:38.416Z,28.30
2024-01-04T22:22:07.258Z,28.15
2024-01-04T22:24:37.178Z,27.55
2024-01-04T22:27:05.965Z,27.83
2024-01-04T22:29:36.304Z,28.30
2024-01-04T22:32:04.760Z,27.63
2024-01-04T22:34:33.273Z,28.05
2024-01-04T22:37:01.704Z,26.33
2024-01-04T22:39:30.002Z,28.13
2024-01-04T22:41:58.935Z,27.08
2024-01-04T22:44:27.210Z,26.63
2024-01-04T22:46:57.636Z,27.98
2024-01-04T22:49:25.979Z,27.17
2024-01-04T22:51:54.335Z,27.95
2024-01-04T22:54:23.069Z,27.55
2024-01-04T22:56:51.545Z,26.85
2024-01-04T22:59:19.972Z,27.23
2024-01-04T23:01:48.326Z,26.80
2024-01-04T23:04:18.144Z,26.92
2024-01-04T23:06:46.694Z,27.33
2024-01-04T23:09:16.169Z,26.60
2024-01-04T23:11:44.505Z,26.38
2024-01-04T23:14:12.799Z,26.00
2024-01-04T23:16:41.839Z,27.02
2024-01-04T23:19:11.392Z,26.52
2024-01-04T23:21:42.788Z,25.65
2024-01-04T23:24:11.142Z,25.63
2024-01-04T23:26:43.328Z,25.00
2024-01-04T23:29:11.931Z,25.55
2024-01-04T23:31:40.996Z,25.77
2024-01-04T23:34:09.741Z,24.77
2024-01-04T23:36:38.572Z,25.13
2024-01-04T23:39:08.649Z,25.40
2024-01-04T23:41:40.019Z,24.60
2024-01-04T23:44:10.160Z,25.05
2024-01-04T23:46:38.578Z,24.00
2024-01-04T23:49:07.021Z,24.63
2024-01-04T23:51:38.978Z,24.48
2024-01-04T23:54:08.913Z,23.90
2024-01-04T23:56:37.578Z,25.00
2024-01-04T23:59:05.908Z,23.63
